»·PEaware :: EAL291 KAMA-KELP

EAL291 :: KAMA-KELP

FLIGHT INFORMATION

Flight Status: Arrived
Operator:
Eastern Air Lines
More flights by this operator :: More flights under this callsign
Pilot: Dave P. (45)
Aircraft: BOEING 737-800
(B738)
More flights by this aircraft type
Origin: KAMA Amarillo Intl
United States
Destination: KELP El Paso Intl
United States
More flights between these airports :: More routes between these airports
Route: +PNH J26 CME SAMMR3
File this flight plan on PilotEdge
Remarks: PBN / A1B1C1D1S1S2 DOF / 180707 REG / N738PM EET / MMTY0055 OPR / EAL PER / D RMK / TCAS SIMBRIEF
Altitude:
(Current/Filed)
36,000ft
Speed:
(Current/Filed)
460kts
Departed: 07-Jul-18 09:57 AM
Arrived: 07-Jul-18 10:47 AM
Distance/Time
Traveled:
312nm/0:50
Distance/Time
To Go:
Arrived

Flight Plot

Page will automatically refresh every two minutes.

Flight plan parsing failed; only flown route is shown


Map Options




Map Legend


Flown Route
Filed Route
Departure Airport
Arrival Airport
Navaid (VOR, NDB)
Fix

Horizontal Profiles

Position Reports

Time Latitude Longitude Heading Altitude Ground
Speed
07-Jul-18 09:43 35.218202 -101.709269 127 3615ft 0kts
07-Jul-18 09:44 35.218202 -101.709269 127 3615ft 0kts
07-Jul-18 09:45 35.218202 -101.709269 127 3615ft 0kts
07-Jul-18 09:46 35.218202 -101.709269 127 3615ft 0kts
07-Jul-18 09:47 35.218207 -101.709278 127 3615ft 0kts
07-Jul-18 09:48 35.218550 -101.709822 127 3615ft 0kts
07-Jul-18 09:49 35.218550 -101.709822 127 3615ft 0kts
07-Jul-18 09:50 35.218550 -101.709821 127 3615ft 0kts
07-Jul-18 09:51 35.218548 -101.709818 127 3615ft 0kts
07-Jul-18 09:52 35.219923 -101.710336 47 3615ft 11kts
07-Jul-18 09:53 35.223337 -101.705893 42 3615ft 15kts
07-Jul-18 09:54 35.226771 -101.701582 45 3615ft 16kts
07-Jul-18 09:55 35.229672 -101.699246 316 3615ft 9kts
07-Jul-18 09:56 35.230056 -101.699658 318 3615ft 0kts
07-Jul-18 09:57 35.230627 -101.700410 282 3615ft 7kts
07-Jul-18 09:58 35.220993 -101.712684 224 3615ft 147kts
07-Jul-18 09:59 35.188200 -101.756005 224 5763ft 195kts
07-Jul-18 10:00 35.141309 -101.814688 224 7359ft 278kts
07-Jul-18 10:01 35.091469 -101.892102 231 10338ft 299kts
07-Jul-18 10:02 35.035952 -101.981505 232 11946ft 364kts
07-Jul-18 10:03 34.973003 -102.082510 232 14713ft 381kts
07-Jul-18 10:04 34.907781 -102.187170 232 17418ft 395kts
07-Jul-18 10:05 34.840094 -102.296080 232 19790ft 410kts
07-Jul-18 10:06 34.769692 -102.408643 232 21860ft 424kts
07-Jul-18 10:07 34.696939 -102.524452 232 23664ft 437kts
07-Jul-18 10:08 34.622165 -102.643029 233 25389ft 445kts
07-Jul-18 10:09 34.546293 -102.762939 232 26879ft 454kts
07-Jul-18 10:10 34.468441 -102.885546 233 28244ft 462kts
07-Jul-18 10:11 34.389372 -103.009647 232 29475ft 469kts
07-Jul-18 10:12 34.309167 -103.135092 232 30836ft 470kts
07-Jul-18 10:13 34.229154 -103.259805 232 32332ft 468kts
07-Jul-18 10:14 34.149494 -103.383541 232 33774ft 466kts
07-Jul-18 10:15 34.069983 -103.506631 233 35168ft 464kts
07-Jul-18 10:16 33.990847 -103.628733 232 36403ft 464kts
07-Jul-18 10:17 33.911045 -103.751450 233 36419ft 461kts
07-Jul-18 10:18 33.831741 -103.873003 232 36407ft 462kts
07-Jul-18 10:19 33.752281 -103.994402 232 36402ft 462kts
07-Jul-18 10:20 33.672778 -104.115484 232 36396ft 462kts
07-Jul-18 10:21 33.593065 -104.236512 232 36390ft 462kts
07-Jul-18 10:22 33.513259 -104.357177 232 36384ft 463kts
07-Jul-18 10:23 33.432844 -104.478084 232 36385ft 463kts
07-Jul-18 10:24 33.351580 -104.598051 227 36382ft 464kts
07-Jul-18 10:25 33.250672 -104.693577 214 36386ft 466kts
07-Jul-18 10:26 33.143864 -104.781185 214 33929ft 465kts
07-Jul-18 10:27 33.037349 -104.868792 214 31256ft 460kts
07-Jul-18 10:28 32.933889 -104.954113 214 29065ft 447kts
07-Jul-18 10:29 32.832842 -105.036867 214 26944ft 435kts
07-Jul-18 10:30 32.734081 -105.117439 214 24850ft 426kts
07-Jul-18 10:31 32.634961 -105.191006 210 23251ft 418kts
07-Jul-18 10:32 32.536182 -105.260827 210 21810ft 408kts
07-Jul-18 10:33 32.439412 -105.329538 210 20405ft 400kts
07-Jul-18 10:34 32.345132 -105.396543 210 19037ft 391kts
07-Jul-18 10:35 32.252787 -105.461843 210 17570ft 382kts
07-Jul-18 10:36 32.162814 -105.525309 210 16003ft 371kts
07-Jul-18 10:37 32.082207 -105.599874 219 14689ft 367kts
07-Jul-18 10:38 32.005021 -105.676186 218 13444ft 346kts
07-Jul-18 10:39 31.947645 -105.758450 239 12171ft 312kts
07-Jul-18 10:40 31.904481 -105.844049 238 10895ft 300kts
07-Jul-18 10:41 31.872064 -105.932620 264 9746ft 298kts
07-Jul-18 10:42 31.868539 -106.026536 267 8873ft 270kts
07-Jul-18 10:43 31.865533 -106.109835 266 8120ft 237kts
07-Jul-18 10:44 31.840255 -106.176435 237 7063ft 215kts
07-Jul-18 10:45 31.811612 -106.234499 239 6042ft 200kts
07-Jul-18 10:46 31.796189 -106.295129 271 5008ft 185kts
07-Jul-18 10:47 31.799989 -106.350242 278 4185ft 157kts
07-Jul-18 10:48 31.801852 -106.384746 273 3966ft 37kts
07-Jul-18 10:49 31.800142 -106.387694 272 3966ft 15kts
07-Jul-18 10:50 31.800975 -106.391697 316 3966ft 11kts
07-Jul-18 10:51 31.800340 -106.394216 179 3966ft 5kts
07-Jul-18 10:52 31.800262 -106.394214 179 3966ft 0kts
07-Jul-18 10:53 31.800262 -106.394214 179 3966ft 0kts
07-Jul-18 10:54 31.800262 -106.394214 179 3966ft 0kts

Navigation Log

Ident Type
Flight plan parsing failed, navigation log unavailable